createdAt,value
2022-09-26T00:00:17.086Z,100.00
2022-09-26T00:02:45.007Z,100.00
2022-09-26T00:05:11.737Z,100.00
2022-09-26T00:07:38.502Z,100.00
2022-09-26T00:10:05.703Z,100.00
2022-09-26T00:12:32.284Z,100.00
2022-09-26T00:14:58.945Z,100.00
2022-09-26T00:17:25.590Z,100.00
2022-09-26T00:19:52.369Z,100.00
2022-09-26T00:22:18.946Z,100.00
2022-09-26T00:24:45.509Z,100.00
2022-09-26T00:27:12.290Z,100.00
2022-09-26T00:29:39.075Z,100.00
2022-09-26T00:32:05.915Z,100.00
2022-09-26T00:34:32.714Z,100.00
2022-09-26T00:36:59.329Z,100.00
2022-09-26T00:39:26.085Z,100.00
2022-09-26T00:41:52.732Z,100.00
2022-09-26T00:44:54.636Z,100.00
2022-09-26T00:47:36.539Z,100.00
2022-09-26T00:50:27.633Z,100.00
2022-09-26T00:53:01.558Z,100.00
2022-09-26T00:55:35.082Z,100.00
2022-09-26T00:58:09.818Z,100.00
2022-09-26T01:00:42.088Z,100.00
2022-09-26T01:03:09.091Z,100.00
2022-09-26T01:05:37.878Z,100.00
2022-09-26T01:08:05.915Z,100.00
2022-09-26T01:10:34.350Z,100.00
2022-09-26T01:13:02.501Z,100.00
2022-09-26T01:15:30.095Z,100.00
2022-09-26T01:17:57.369Z,100.00
2022-09-26T01:20:57.166Z,100.00
2022-09-26T01:23:49.789Z,100.00
2022-09-26T01:26:46.910Z,100.00
2022-09-26T01:29:25.770Z,100.00
2022-09-26T01:32:31.232Z,100.00
2022-09-26T01:35:59.307Z,100.00
2022-09-26T01:38:59.304Z,100.00
2022-09-26T01:42:04.454Z,100.00
2022-09-26T01:44:41.675Z,100.00
2022-09-26T01:47:31.707Z,100.00
2022-09-26T01:50:34.812Z,100.00
2022-09-26T01:53:06.490Z,100.00
2022-09-26T01:56:05.215Z,100.00
2022-09-26T01:58:37.523Z,100.00
2022-09-26T02:01:10.668Z,100.00
2022-09-26T02:06:59.894Z,100.00
2022-09-26T02:09:35.249Z,100.00
2022-09-26T02:12:06.074Z,100.00
2022-09-26T02:14:36.484Z,100.00
2022-09-26T02:17:12.385Z,100.00
2022-09-26T02:19:56.820Z,100.00
2022-09-26T02:22:27.728Z,100.00
2022-09-26T02:24:54.351Z,100.00
2022-09-26T02:27:21.751Z,100.00
2022-09-26T02:29:48.530Z,100.00
2022-09-26T02:32:20.600Z,100.00
2022-09-26T02:34:48.585Z,100.00
2022-09-26T02:37:17.026Z,100.00
2022-09-26T02:39:46.315Z,100.00
2022-09-26T02:42:33.208Z,100.00
2022-09-26T02:45:27.400Z,100.00
2022-09-26T02:48:27.809Z,100.00
2022-09-26T02:51:50.091Z,100.00
2022-09-26T02:54:39.634Z,100.00
2022-09-26T02:57:31.966Z,100.00
2022-09-26T03:00:05.436Z,100.00
2022-09-26T03:02:39.119Z,100.00
2022-09-26T03:05:17.822Z,100.00
2022-09-26T03:08:16.308Z,100.00
2022-09-26T03:10:45.570Z,100.00
2022-09-26T03:13:15.655Z,100.00
2022-09-26T03:15:45.617Z,100.00
2022-09-26T03:18:16.914Z,100.00
2022-09-26T03:20:44.608Z,100.00
2022-09-26T03:23:11.422Z,100.00
2022-09-26T03:25:38.264Z,100.00
2022-09-26T03:28:05.721Z,100.00
2022-09-26T03:30:32.329Z,100.00
2022-09-26T03:32:58.928Z,100.00
2022-09-26T03:35:25.723Z,100.00
2022-09-26T03:37:52.822Z,100.00
2022-09-26T03:40:19.662Z,100.00
2022-09-26T03:42:48.007Z,100.00
2022-09-26T03:45:14.665Z,100.00
2022-09-26T03:47:42.083Z,100.00
2022-09-26T03:50:09.562Z,100.00
2022-09-26T03:52:36.671Z,100.00
2022-09-26T03:55:04.671Z,100.00
2022-09-26T03:57:31.348Z,100.00
2022-09-26T03:59:57.935Z,100.00
2022-09-26T04:02:24.629Z,100.00
2022-09-26T04:04:51.294Z,100.00
2022-09-26T04:07:17.949Z,100.00
2022-09-26T04:09:44.533Z,100.00
2022-09-26T04:12:11.311Z,100.00
2022-09-26T04:14:37.868Z,100.00
2022-09-26T04:17:04.506Z,100.00
2022-09-26T04:19:31.734Z,100.00
2022-09-26T04:21:58.963Z,100.00
2022-09-26T04:24:25.983Z,100.00
2022-09-26T04:26:52.605Z,100.00
2022-09-26T04:29:19.383Z,100.00
2022-09-26T04:31:46.126Z,100.00
2022-09-26T04:34:13.129Z,100.00
2022-09-26T04:36:39.926Z,100.00
2022-09-26T04:39:06.869Z,100.00
2022-09-26T04:41:33.948Z,100.00
2022-09-26T04:44:01.829Z,100.00
2022-09-26T04:46:31.074Z,100.00
2022-09-26T04:49:00.381Z,100.00
2022-09-26T04:51:28.826Z,100.00
2022-09-26T04:53:56.110Z,100.00
2022-09-26T04:56:25.236Z,100.00
2022-09-26T04:58:54.631Z,100.00
2022-09-26T05:01:22.141Z,100.00
2022-09-26T05:03:49.104Z,100.00
2022-09-26T05:06:17.609Z,100.00
2022-09-26T05:08:46.621Z,100.00
2022-09-26T05:11:18.095Z,100.00
2022-09-26T05:13:45.100Z,100.00
2022-09-26T05:16:14.484Z,100.00
2022-09-26T05:18:41.535Z,100.00
2022-09-26T05:21:08.505Z,100.00
2022-09-26T05:23:54.427Z,100.00
2022-09-26T05:26:26.706Z,100.00
2022-09-26T05:28:54.642Z,100.00
2022-09-26T05:31:23.558Z,100.00
2022-09-26T05:33:51.488Z,100.00
2022-09-26T05:36:19.517Z,100.00
2022-09-26T05:38:46.504Z,100.00
2022-09-26T05:41:14.522Z,100.00
2022-09-26T05:43:41.222Z,100.00
2022-09-26T05:46:10.202Z,100.00
2022-09-26T05:48:38.699Z,100.00
2022-09-26T05:51:12.413Z,100.00
2022-09-26T05:53:40.708Z,100.00
2022-09-26T05:56:07.601Z,100.00
2022-09-26T05:58:36.260Z,100.00
2022-09-26T06:01:10.950Z,100.00
2022-09-26T06:03:39.111Z,100.00
2022-09-26T06:06:07.831Z,100.00
2022-09-26T06:08:36.271Z,100.00
2022-09-26T06:11:25.000Z,100.00
2022-09-26T06:13:51.933Z,100.00
2022-09-26T06:16:21.306Z,100.00
2022-09-26T06:18:51.248Z,100.00
2022-09-26T06:21:19.730Z,100.00
2022-09-26T06:23:46.299Z,100.00
2022-09-26T06:26:24.178Z,100.00
2022-09-26T06:28:58.184Z,100.00
2022-09-26T06:31:26.308Z,100.00
2022-09-26T06:33:55.149Z,100.00
2022-09-26T06:36:25.312Z,100.00
2022-09-26T06:38:55.099Z,100.00
2022-09-26T06:41:21.704Z,100.00
2022-09-26T06:43:49.184Z,100.00
2022-09-26T06:46:16.347Z,100.00
2022-09-26T06:48:43.738Z,100.00
2022-09-26T06:51:13.986Z,100.00
2022-09-26T06:53:41.187Z,100.00
2022-09-26T06:56:08.210Z,100.00
2022-09-26T06:58:34.826Z,100.00
2022-09-26T07:01:02.444Z,100.00
2022-09-26T07:03:29.668Z,100.00
2022-09-26T07:05:57.146Z,100.00
2022-09-26T07:08:43.332Z,100.00
2022-09-26T07:11:32.646Z,100.00
2022-09-26T07:14:00.234Z,100.00
2022-09-26T07:16:27.182Z,100.00
2022-09-26T07:19:00.119Z,100.00
2022-09-26T07:21:27.201Z,100.00
2022-09-26T07:23:57.964Z,100.00
2022-09-26T07:26:24.669Z,100.00
2022-09-26T07:28:54.687Z,100.00
2022-09-26T07:31:23.656Z,100.00
2022-09-26T07:33:50.585Z,100.00
2022-09-26T07:36:18.509Z,100.00
2022-09-26T07:38:48.609Z,100.00
2022-09-26T07:41:15.503Z,100.00
2022-09-26T07:44:30.289Z,100.00
2022-09-26T07:46:47.300Z,100.00
2022-09-26T07:49:32.487Z,100.00
2022-09-26T07:52:00.791Z,100.00
2022-09-26T07:54:27.431Z,100.00
2022-09-26T07:56:55.233Z,100.00
2022-09-26T07:59:22.975Z,100.00
2022-09-26T08:01:49.697Z,100.00
2022-09-26T08:04:16.831Z,100.00
2022-09-26T08:06:44.129Z,100.00
2022-09-26T08:09:11.063Z,100.00
2022-09-26T08:11:38.457Z,100.00
2022-09-26T08:14:05.082Z,100.00
2022-09-26T08:16:31.923Z,100.00
2022-09-26T08:18:58.958Z,100.00
2022-09-26T08:21:25.745Z,100.00
2022-09-26T08:23:53.570Z,100.00
2022-09-26T08:26:23.942Z,100.00
2022-09-26T08:28:50.826Z,100.00
2022-09-26T08:31:17.976Z,100.00
2022-09-26T08:33:44.620Z,100.00
2022-09-26T08:36:13.225Z,100.00
2022-09-26T08:38:40.119Z,100.00
2022-09-26T08:41:47.429Z,100.00
2022-09-26T08:44:54.073Z,100.00
2022-09-26T08:47:48.889Z,100.00
2022-09-26T08:50:49.895Z,100.00
2022-09-26T08:53:22.666Z,100.00
2022-09-26T08:55:53.615Z,100.00
2022-09-26T08:58:29.070Z,99.23
2022-09-26T09:01:01.471Z,99.26
2022-09-26T09:03:33.411Z,99.22
2022-09-26T09:06:08.218Z,99.18
2022-09-26T09:08:41.967Z,99.00
2022-09-26T09:11:54.764Z,98.20
2022-09-26T09:15:25.852Z,95.49
2022-09-26T09:18:19.711Z,94.66
2022-09-26T09:20:56.595Z,92.25
2022-09-26T09:23:34.448Z,92.16
2022-09-26T09:29:56.628Z,91.34
2022-09-26T09:32:30.225Z,90.07
2022-09-26T09:34:57.425Z,90.62
2022-09-26T09:37:28.251Z,92.38
2022-09-26T09:39:56.598Z,93.56
2022-09-26T09:42:31.231Z,91.27
2022-09-26T09:45:27.626Z,89.02
2022-09-26T09:47:56.719Z,89.80
2022-09-26T09:51:05.542Z,88.95
2022-09-26T09:54:24.328Z,89.85
2022-09-26T09:57:28.418Z,90.42
2022-09-26T10:00:19.020Z,87.60
2022-09-26T10:03:11.796Z,85.96
2022-09-26T10:05:42.659Z,85.28
2022-09-26T10:08:24.575Z,85.26
2022-09-26T10:11:26.353Z,84.39
2022-09-26T10:13:56.966Z,85.99
2022-09-26T10:16:25.086Z,84.55
2022-09-26T10:19:04.650Z,84.69
2022-09-26T10:21:34.901Z,84.21
2022-09-26T10:24:04.765Z,84.79
2022-09-26T10:26:36.477Z,80.29
2022-09-26T10:29:07.648Z,80.65
2022-09-26T10:31:42.689Z,81.41
2022-09-26T10:34:41.956Z,80.64
2022-09-26T10:37:41.763Z,80.89
2022-09-26T10:40:41.918Z,80.95
2022-09-26T10:43:40.870Z,80.07
2022-09-26T10:46:20.140Z,81.16
2022-09-26T10:48:50.919Z,81.61
2022-09-26T10:51:44.892Z,81.28
2022-09-26T10:54:26.675Z,81.94
2022-09-26T10:56:59.106Z,82.40
2022-09-26T10:59:27.526Z,80.51
2022-09-26T11:01:57.170Z,81.07
2022-09-26T11:04:48.009Z,81.79
2022-09-26T11:07:25.570Z,80.05
2022-09-26T11:09:53.616Z,78.37
2022-09-26T11:12:34.377Z,76.69
2022-09-26T11:15:11.921Z,78.06
2022-09-26T11:17:49.871Z,76.57
2022-09-26T11:20:27.366Z,78.73
2022-09-26T11:23:09.365Z,76.29
2022-09-26T11:25:50.711Z,76.90
2022-09-26T11:28:24.991Z,77.01
2022-09-26T11:30:57.255Z,76.01
2022-09-26T11:33:24.685Z,77.01
2022-09-26T11:36:30.136Z,78.23
2022-09-26T11:38:57.897Z,76.45
2022-09-26T11:42:07.817Z,77.03
2022-09-26T11:44:50.695Z,75.49
2022-09-26T11:47:20.119Z,72.26
2022-09-26T11:50:23.670Z,71.72
2022-09-26T11:53:48.838Z,67.74
2022-09-26T11:56:32.095Z,70.37
2022-09-26T12:09:32.289Z,72.05
2022-09-26T12:12:15.667Z,72.00
2022-09-26T12:15:08.520Z,68.54
2022-09-26T12:18:05.049Z,69.28
2022-09-26T12:21:03.533Z,69.71
2022-09-26T12:23:37.906Z,69.17
2022-09-26T12:26:20.663Z,69.71
2022-09-26T12:29:19.899Z,71.51
2022-09-26T12:32:40.440Z,68.53
2022-09-26T12:35:31.794Z,69.74
2022-09-26T13:16:56.136Z,69.16
2022-09-26T13:19:31.635Z,67.15
2022-09-26T13:22:05.218Z,66.46
2022-09-26T13:25:26.163Z,70.22
2022-09-26T13:28:19.116Z,69.93
2022-09-26T13:36:42.311Z,68.58
2022-09-26T13:39:29.696Z,68.84
2022-09-26T13:42:05.195Z,68.40
2022-09-26T13:45:05.414Z,65.42
2022-09-26T13:47:49.201Z,66.15
2022-09-26T13:50:25.951Z,64.83
2022-09-26T13:53:09.991Z,63.87
2022-09-26T13:55:36.664Z,63.23
2022-09-26T13:58:18.882Z,63.39
2022-09-26T14:00:53.080Z,64.10
2022-09-26T14:03:40.136Z,63.72
2022-09-26T14:06:09.080Z,64.88
2022-09-26T14:08:54.983Z,64.57
2022-09-26T14:11:46.381Z,64.96
2022-09-26T14:14:51.056Z,68.21
2022-09-26T14:18:02.834Z,66.08
2022-09-26T14:20:38.418Z,65.92
2022-09-26T14:23:05.264Z,65.89
2022-09-26T14:26:11.805Z,65.94
2022-09-26T14:28:39.560Z,65.80
2022-09-26T14:31:56.783Z,67.42
2022-09-26T14:34:28.248Z,66.62
2022-09-26T14:37:01.544Z,67.83
2022-09-26T14:39:36.785Z,67.46
2022-09-26T14:43:00.212Z,67.60
2022-09-26T14:48:42.825Z,70.14
2022-09-26T14:51:29.603Z,70.45
2022-09-26T14:54:15.378Z,68.22
2022-09-26T14:56:47.230Z,67.30
2022-09-26T14:59:27.716Z,69.69
2022-09-26T15:02:28.615Z,70.65
2022-09-26T15:05:25.194Z,70.01
2022-09-26T15:07:54.510Z,70.54
2022-09-26T15:10:38.598Z,70.40
2022-09-26T15:13:28.522Z,72.76
2022-09-26T15:16:32.461Z,72.20
2022-09-26T15:19:06.838Z,71.14
2022-09-26T15:21:43.060Z,73.45
2022-09-26T15:24:32.327Z,73.50
2022-09-26T15:27:09.465Z,73.83
2022-09-26T15:29:42.308Z,74.86
2022-09-26T15:32:17.142Z,73.54
2022-09-26T15:34:44.686Z,74.92
2022-09-26T15:37:34.455Z,73.30
2022-09-26T15:40:24.409Z,73.05
2022-09-26T15:43:03.027Z,73.22
2022-09-26T15:45:33.162Z,74.57
2022-09-26T15:48:05.159Z,75.59
2022-09-26T15:50:42.193Z,74.92
2022-09-26T15:53:33.037Z,75.27
2022-09-26T15:56:30.238Z,74.91
2022-09-26T15:59:01.897Z,75.54
2022-09-26T16:01:31.222Z,76.52
2022-09-26T16:04:13.472Z,78.18
2022-09-26T16:06:52.979Z,78.50
2022-09-26T16:09:48.052Z,80.05
2022-09-26T16:12:35.522Z,80.38
2022-09-26T16:15:07.464Z,81.21
2022-09-26T16:17:49.169Z,81.09
2022-09-26T16:20:36.395Z,81.79
2022-09-26T16:23:05.471Z,82.84
2022-09-26T16:25:53.013Z,83.64
2022-09-26T16:28:42.583Z,84.05
2022-09-26T16:31:17.887Z,83.25
2022-09-26T16:33:50.969Z,84.37
2022-09-26T16:36:20.493Z,84.00
2022-09-26T16:38:52.224Z,82.09
2022-09-26T16:42:01.618Z,83.07
2022-09-26T16:44:29.035Z,84.15
2022-09-26T16:47:03.240Z,83.46
2022-09-26T16:49:48.615Z,84.43
2022-09-26T16:52:34.490Z,83.56
2022-09-26T16:55:03.438Z,83.61
2022-09-26T16:57:33.758Z,83.90
2022-09-26T17:00:22.617Z,83.98
2022-09-26T17:02:49.634Z,83.56
2022-09-26T17:05:21.449Z,84.08
2022-09-26T17:07:49.695Z,84.09
2022-09-26T17:10:19.405Z,84.63
2022-09-26T17:12:50.501Z,85.08
2022-09-26T17:15:21.977Z,84.69
2022-09-26T17:17:48.913Z,85.39
2022-09-26T17:20:15.837Z,86.14
2022-09-26T17:22:42.487Z,85.86
2022-09-26T17:25:14.380Z,86.36
2022-09-26T17:27:42.629Z,87.07
2022-09-26T17:30:18.563Z,86.51
2022-09-26T17:32:51.878Z,86.22
2022-09-26T17:35:32.095Z,85.94
2022-09-26T17:38:00.199Z,86.86
2022-09-26T17:40:32.014Z,87.93
2022-09-26T17:43:02.103Z,87.70
2022-09-26T17:45:34.459Z,88.12
2022-09-26T17:48:04.361Z,88.71
2022-09-26T17:50:32.703Z,88.77
2022-09-26T17:53:02.041Z,89.16
2022-09-26T17:55:29.848Z,89.29
2022-09-26T17:57:58.356Z,89.00
2022-09-26T18:00:25.685Z,89.18
2022-09-26T18:03:00.520Z,89.31
2022-09-26T18:05:34.637Z,89.63
2022-09-26T18:08:08.154Z,90.08
2022-09-26T18:10:38.359Z,90.41
2022-09-26T18:13:13.007Z,91.49
2022-09-26T18:15:41.174Z,92.31
2022-09-26T18:18:16.252Z,92.36
2022-09-26T18:20:45.534Z,91.94
2022-09-26T18:23:34.886Z,92.72
2022-09-26T18:26:03.071Z,93.33
2022-09-26T18:28:30.010Z,94.05
2022-09-26T18:30:59.193Z,94.22
2022-09-26T18:33:27.931Z,94.07
2022-09-26T18:35:55.195Z,94.00
2022-09-26T18:38:22.276Z,94.76
2022-09-26T18:41:00.136Z,94.58
2022-09-26T18:43:39.033Z,95.01
2022-09-26T18:46:08.841Z,95.88
2022-09-26T18:48:37.238Z,95.35
2022-09-26T18:51:04.191Z,96.03
2022-09-26T18:53:37.106Z,97.38
2022-09-26T18:56:23.782Z,98.07
2022-09-26T18:58:50.554Z,98.49
2022-09-26T19:01:28.089Z,99.01
2022-09-26T19:03:58.537Z,99.06
2022-09-26T19:06:35.993Z,98.09
2022-09-26T19:09:11.525Z,98.71
2022-09-26T19:11:38.386Z,99.38
2022-09-26T19:14:17.175Z,99.72
2022-09-26T19:16:45.655Z,99.40
2022-09-26T19:19:13.035Z,99.51
2022-09-26T19:21:55.422Z,99.11
2022-09-26T19:24:33.064Z,98.29
2022-09-26T19:27:06.467Z,98.21
2022-09-26T19:29:52.324Z,97.98
2022-09-26T19:32:23.179Z,97.70
2022-09-26T19:34:56.904Z,97.35
2022-09-26T19:37:23.605Z,97.70
2022-09-26T19:39:52.943Z,97.02
2022-09-26T19:42:19.703Z,97.43
2022-09-26T19:44:46.446Z,97.68
2022-09-26T19:47:22.246Z,97.65
2022-09-26T19:49:51.803Z,98.38
2022-09-26T19:52:20.754Z,98.76
2022-09-26T19:54:47.970Z,99.58
2022-09-26T19:57:19.619Z,98.87
2022-09-26T19:59:47.098Z,99.18
2022-09-26T20:02:16.915Z,98.77
2022-09-26T20:04:44.992Z,99.55
2022-09-26T20:07:20.040Z,99.16
2022-09-26T20:09:47.432Z,99.98
2022-09-26T20:12:14.274Z,99.58
2022-09-26T20:14:41.145Z,99.43
2022-09-26T20:17:27.210Z,99.13
2022-09-26T20:19:58.635Z,98.81
2022-09-26T20:22:26.189Z,99.08
2022-09-26T20:24:57.214Z,99.17
2022-09-26T20:27:28.031Z,98.73
2022-09-26T20:30:13.940Z,99.23
2022-09-26T20:32:44.095Z,98.65
2022-09-26T20:35:14.604Z,98.30
2022-09-26T20:37:42.336Z,98.32
2022-09-26T20:40:19.557Z,98.69
2022-09-26T20:42:50.423Z,97.83
2022-09-26T20:45:20.692Z,98.36
2022-09-26T20:47:47.599Z,99.44
2022-09-26T20:50:19.425Z,100.00
2022-09-26T20:52:46.143Z,99.82
2022-09-26T20:55:19.590Z,99.67
2022-09-26T20:57:46.324Z,99.35
2022-09-26T21:00:18.146Z,99.03
2022-09-26T21:02:46.933Z,98.63
2022-09-26T21:05:20.200Z,97.91
2022-09-26T21:07:47.090Z,97.88
2022-09-26T21:10:30.892Z,97.59
2022-09-26T21:12:59.187Z,97.66
2022-09-26T21:15:28.714Z,97.47
2022-09-26T21:17:56.232Z,97.53
2022-09-26T21:20:26.121Z,97.38
2022-09-26T21:22:54.100Z,97.45
2022-09-26T21:25:25.938Z,97.41
2022-09-26T21:27:56.372Z,97.93
2022-09-26T21:30:23.188Z,99.38
2022-09-26T21:32:58.062Z,99.65
2022-09-26T21:35:28.953Z,100.00
2022-09-26T21:37:57.268Z,100.00
2022-09-26T21:40:29.828Z,100.00
2022-09-26T21:43:05.564Z,100.00
2022-09-26T21:45:32.900Z,100.00
2022-09-26T21:48:00.157Z,100.00
2022-09-26T21:50:29.342Z,100.00
2022-09-26T21:53:20.002Z,100.00
2022-09-26T21:55:52.529Z,100.00
2022-09-26T21:58:24.547Z,100.00
2022-09-26T22:00:52.008Z,100.00
2022-09-26T22:03:19.005Z,100.00
2022-09-26T22:05:45.783Z,100.00
2022-09-26T22:08:12.526Z,100.00
2022-09-26T22:10:39.251Z,100.00
2022-09-26T22:13:06.184Z,100.00
2022-09-26T22:15:33.128Z,100.00
2022-09-26T22:17:59.832Z,100.00
2022-09-26T22:20:26.588Z,100.00
2022-09-26T22:22:53.339Z,100.00
2022-09-26T22:25:20.020Z,100.00
2022-09-26T22:27:47.079Z,100.00
2022-09-26T22:30:14.062Z,100.00
2022-09-26T22:32:40.766Z,100.00
2022-09-26T22:35:07.734Z,100.00
2022-09-26T22:37:34.750Z,100.00
2022-09-26T22:40:02.217Z,100.00
2022-09-26T22:42:28.919Z,100.00
2022-09-26T22:44:55.619Z,100.00
2022-09-26T22:47:22.455Z,100.00
2022-09-26T22:49:49.631Z,100.00
2022-09-26T22:52:16.566Z,100.00
2022-09-26T22:54:43.306Z,100.00
2022-09-26T22:57:10.075Z,100.00
2022-09-26T22:59:37.149Z,100.00
2022-09-26T23:02:04.813Z,100.00
2022-09-26T23:04:46.876Z,100.00
2022-09-26T23:07:15.373Z,100.00
2022-09-26T23:09:42.594Z,100.00
2022-09-26T23:12:10.168Z,100.00
2022-09-26T23:14:36.946Z,100.00
2022-09-26T23:17:03.808Z,100.00
2022-09-26T23:19:32.527Z,100.00
2022-09-26T23:21:59.267Z,100.00
2022-09-26T23:24:25.960Z,100.00
2022-09-26T23:26:52.855Z,100.00
2022-09-26T23:29:19.639Z,100.00
2022-09-26T23:31:46.343Z,100.00
2022-09-26T23:34:13.097Z,100.00
2022-09-26T23:36:39.768Z,100.00
2022-09-26T23:39:06.506Z,100.00
2022-09-26T23:41:33.183Z,100.00
2022-09-26T23:43:59.874Z,100.00
2022-09-26T23:46:26.741Z,100.00
2022-09-26T23:48:53.566Z,100.00
2022-09-26T23:51:20.593Z,100.00
2022-09-26T23:53:48.246Z,100.00
2022-09-26T23:56:14.931Z,100.00
2022-09-26T23:58:41.687Z,100.00
